Time;durP1;ratioP1;P1;durP2;ratioP2;P2;SDS_P1;SDS_P2;PMS_P1;PMS_P2;Temp;Humidity;BMP_temperature;BMP_pressure;BME280_temperature;BME280_humidity;BME280_pressure;Samples;Min_cycle;Max_cycle;Signal;HPM_P1;HPM_P2
2023/01/17 00:01:09;;;;;;;0.50;0.40;;;;;;;;;;5001259;28;20062;-79
2023/01/17 00:11:50;;;;;;;1.10;0.77;;;;;;;;;;5006983;28;20049;-78
2023/01/17 00:14:17;;;;;;;0.98;0.65;;;;;;;;;;5005517;28;20021;-81
2023/01/17 00:16:43;;;;;;;2.80;0.70;;;;;;;;;;5003275;28;20560;-80
2023/01/17 01:33:52;;;;;;;0.55;0.40;;;;;;;;;;5003427;28;20406;-80
2023/01/17 01:36:19;;;;;;;1.08;0.90;;;;;;;;;;5005295;28;20437;-82
2023/01/17 01:38:45;;;;;;;0.50;0.50;;;;;;;;;;5001082;28;21382;-80
2023/01/17 01:41:11;;;;;;;0.70;0.63;;;;;;;;;;5000873;28;20045;-79
2023/01/17 01:43:42;;;;;;;1.05;0.77;;;;;;;;;;5004655;28;20034;-79
2023/01/17 01:46:10;;;;;;;1.30;0.73;;;;;;;;;;4994632;28;20022;-81
2023/01/17 01:48:39;;;;;;;0.90;0.70;;;;;;;;;;5004883;28;20030;-79
2023/01/17 01:51:08;;;;;;;1.20;0.70;;;;;;;;;;5004995;28;20044;-79
2023/01/17 01:53:35;;;;;;;6.43;0.82;;;;;;;;;;4989375;28;20022;-81
2023/01/17 01:56:02;;;;;;;1.35;0.60;;;;;;;;;;4997183;28;20438;-81
2023/01/17 01:58:31;;;;;;;2.22;0.65;;;;;;;;;;5008888;28;20033;-80
2023/01/17 02:00:57;;;;;;;2.17;0.63;;;;;;;;;;4996514;28;20474;-80
2023/01/17 02:03:28;;;;;;;1.65;0.70;;;3.40;99.90;;;;;;5000485;28;20030;-79
2023/01/17 02:05:54;;;;;;;1.25;0.65;;;;;;;;;;5000186;28;20110;-79
2023/01/17 02:08:22;;;;;;;1.75;0.88;;;3.60;99.90;;;;;;5003508;28;20367;-81
2023/01/17 02:10:49;;;;;;;1.85;1.20;;;;;;;;;;5002692;28;21375;-81
2023/01/17 02:13:16;;;;;;;1.95;0.73;;;;;;;;;;5004699;28;20157;-81
2023/01/17 02:15:48;;;;;;;0.55;0.40;;;;;;;;;;5000666;28;20034;-79
2023/01/17 02:18:32;;;;;;;2.53;0.82;;;;;;;;;;5004496;28;20032;-82
2023/01/17 02:21:04;;;;;;;2.20;0.93;;;;;;;;;;5004812;28;20048;-80
2023/01/17 02:23:37;;;;;;;1.35;0.70;;;;;;;;;;4996996;28;20568;-80
2023/01/17 02:26:29;;;;;;;0.75;0.60;;;;;;;;;;5004625;28;20034;-79
2023/01/17 02:29:01;;;;;;;1.20;0.60;;;;;;;;;;4998472;28;20433;-81
2023/01/17 02:31:31;;;;;;;1.38;0.68;;;;;;;;;;5002810;28;20076;-81
2023/01/17 02:34:11;;;;;;;2.40;0.80;;;;;;;;;;5001190;28;20036;-79
2023/01/17 02:36:42;;;;;;;1.20;0.50;;;;;;;;;;5007753;28;20030;-81
2023/01/17 02:39:13;;;;;;;0.70;0.45;;;;;;;;;;5007161;28;20114;-80
2023/01/17 02:41:41;;;;;;;1.63;1.02;;;;;;;;;;5006743;28;20026;-81
2023/01/17 02:44:14;;;;;;;7.78;0.75;;;;;;;;;;5002309;28;20118;-80
2023/01/17 02:46:47;;;;;;;2.92;0.82;;;;;;;;;;5001846;28;20026;-79
2023/01/17 02:49:15;;;;;;;0.68;0.60;;;;;;;;;;5004733;28;20037;-81
2023/01/17 02:51:44;;;;;;;1.85;0.85;;;;;;;;;;5002153;28;20110;-80
2023/01/17 02:54:10;;;;;;;1.65;0.85;;;;;;;;;;5003718;28;20145;-80
2023/01/17 02:56:55;;;;;;;1.33;0.55;;;;;;;;;;4995954;28;20111;-78
2023/01/17 02:59:30;;;;;;;1.60;0.80;;;;;;;;;;5004837;28;20041;-81
2023/01/17 03:01:56;;;;;;;1.27;0.93;;;;;;;;;;4999229;28;20040;-81
2023/01/17 03:04:38;;;;;;;0.80;0.43;;;;;;;;;;5005672;28;20037;-81
2023/01/17 03:07:05;;;;;;;1.05;0.70;;;;;;;;;;5005567;28;20049;-81
2023/01/17 03:09:32;;;;;;;1.92;0.73;;;2.40;99.90;;;;;;5002338;28;20048;-80
2023/01/17 03:11:58;;;;;;;2.70;1.05;;;;;;;;;;5001689;28;20030;-81
2023/01/17 03:14:24;;;;;;;1.40;0.73;;;;;;;;;;4997799;28;20026;-81
2023/01/17 03:16:50;;;;;;;1.83;0.80;;;;;;;;;;5001086;28;20083;-80
2023/01/17 03:19:16;;;;;;;2.13;1.27;;;;;;;;;;5003015;28;20478;-80
2023/01/17 03:21:42;;;;;;;1.02;0.85;;;;;;;;;;4997588;28;20121;-81
2023/01/17 03:24:08;;;;;;;1.60;0.52;;;;;;;;;;5001710;28;20054;-80
2023/01/17 03:26:34;;;;;;;0.88;0.88;;;;;;;;;;4998299;28;20072;-80
2023/01/17 03:29:00;;;;;;;2.38;1.17;;;;;;;;;;5001632;28;20026;-80
2023/01/17 03:31:26;;;;;;;2.53;0.88;;;;;;;;;;5003609;28;20093;-80
2023/01/17 03:33:52;;;;;;;2.15;1.13;;;;;;;;;;5002776;28;20489;-81
2023/01/17 03:36:19;;;;;;;1.20;1.02;;;;;;;;;;5007679;28;20509;-81
2023/01/17 03:38:45;;;;;;;1.83;0.90;;;;;;;;;;5001993;28;20117;-79
2023/01/17 03:41:10;;;;;;;1.83;1.05;;;;;;;;;;5006014;28;20041;-80
2023/01/17 03:43:37;;;;;;;3.85;1.08;;;;;;;;;;5003244;28;20662;-80
2023/01/17 03:46:06;;;;;;;1.35;0.77;;;1.90;99.90;;;;;;5004212;28;20045;-80
2023/01/17 03:48:32;;;;;;;1.33;0.82;;;;;;;;;;5004743;28;20115;-80
2023/01/17 03:50:58;;;;;;;10.60;0.82;;;;;;;;;;5002193;28;20034;-81
2023/01/17 03:53:24;;;;;;;1.50;0.75;;;;;;;;;;5004454;28;20030;-79
2023/01/17 03:55:51;;;;;;;1.70;1.00;;;;;;;;;;4997302;28;20041;-81
2023/01/17 03:58:17;;;;;;;2.28;1.42;;;;;;;;;;5007810;28;20018;-81
2023/01/17 04:00:43;;;;;;;2.90;1.52;;;;;;;;;;4996495;28;20034;-80
2023/01/17 04:03:09;;;;;;;3.15;0.95;;;;;;;;;;5002890;28;20426;-78
2023/01/17 04:05:35;;;;;;;1.25;0.90;;;;;;;;;;4997450;28;20039;-81
2023/01/17 04:08:01;;;;;;;2.75;1.42;;;;;;;;;;4993885;28;20453;-79
2023/01/17 04:10:27;;;;;;;5.25;0.95;;;;;;;;;;4999322;28;20100;-78
2023/01/17 04:12:53;;;;;;;2.80;1.23;;;;;;;;;;4996637;28;20030;-80
2023/01/17 04:15:20;;;;;;;5.38;0.90;;;;;;;;;;4999729;28;20030;-81
2023/01/17 04:17:46;;;;;;;1.67;1.35;;;;;;;;;;4999953;28;20117;-81
2023/01/17 04:20:23;;;;;;;1.80;1.17;;;2.20;99.90;;;;;;5005573;28;20113;-80
2023/01/17 04:22:49;;;;;;;3.75;1.10;;;;;;;;;;5002564;28;20038;-80
2023/01/17 04:25:15;;;;;;;2.70;1.20;;;;;;;;;;5007924;28;20522;-80
2023/01/17 04:27:41;;;;;;;1.27;0.88;;;;;;;;;;5001294;28;20602;-80
2023/01/17 04:30:07;;;;;;;2.88;1.42;;;;;;;;;;5001920;28;20288;-78
2023/01/17 04:32:33;;;;;;;3.22;0.95;;;;;;;;;;5000291;28;20034;-80
2023/01/17 04:34:59;;;;;;;8.05;1.77;;;;;;;;;;5004968;28;20023;-81
2023/01/17 04:37:25;;;;;;;0.55;0.45;;;;;;;;;;5001082;28;20057;-81
2023/01/17 04:39:51;;;;;;;1.20;1.05;;;;;;;;;;5001918;28;20026;-80
2023/01/17 04:42:16;;;;;;;3.17;1.15;;;;;;;;;;5004422;28;20041;-80
2023/01/17 04:44:42;;;;;;;1.70;1.02;;;;;;;;;;4998577;28;20028;-79
2023/01/17 04:47:08;;;;;;;1.90;1.08;;;;;;;;;;5008391;28;20026;-81
2023/01/17 04:49:34;;;;;;;1.45;0.90;;;;;;;;;;5009868;28;20042;-78
2023/01/17 04:52:00;;;;;;;1.58;1.48;;;;;;;;;;5006494;28;20088;-81
2023/01/17 04:54:26;;;;;;;0.93;0.68;;;;;;;;;;5010044;28;20095;-79
2023/01/17 04:56:52;;;;;;;1.55;1.15;;;;;;;;;;5004517;28;20029;-78
2023/01/17 04:59:18;;;;;;;1.80;1.15;;;;;;;;;;5002168;28;20029;-80
2023/01/17 05:01:44;;;;;;;2.20;1.23;;;;;;;;;;4987426;28;20765;-79
2023/01/17 05:04:10;;;;;;;1.90;0.68;;;;;;;;;;5012008;28;20597;-79
2023/01/17 05:06:36;;;;;;;1.98;1.00;;;;;;;;;;5010325;28;20025;-80
2023/01/17 05:09:02;;;;;;;2.33;0.88;;;;;;;;;;5006609;28;20026;-81
2023/01/17 05:11:28;;;;;;;1.67;1.00;;;;;;;;;;5004721;28;20456;-81
2023/01/17 05:13:54;;;;;;;3.80;1.30;;;;;;;;;;5012948;28;20103;-81
2023/01/17 05:16:20;;;;;;;2.72;1.25;;;;;;;;;;5004232;28;20026;-81
2023/01/17 05:18:46;;;;;;;2.08;1.27;;;;;;;;;;5010251;28;20033;-81
2023/01/17 05:21:12;;;;;;;1.50;0.98;;;;;;;;;;5001656;28;20029;-80
2023/01/17 05:23:39;;;;;;;3.90;1.48;;;;;;;;;;5000430;28;20034;-79
2023/01/17 05:26:05;;;;;;;2.72;1.50;;;;;;;;;;5004848;28;20038;-80
2023/01/17 05:28:31;;;;;;;5.40;1.75;;;;;;;;;;5001705;28;20084;-81
2023/01/17 05:30:57;;;;;;;1.85;0.98;;;;;;;;;;4994504;28;20232;-82
2023/01/17 05:33:23;;;;;;;2.28;1.35;;;;;;;;;;5006246;28;20018;-79
2023/01/17 05:35:49;;;;;;;3.40;1.50;;;;;;;;;;5001994;28;20030;-81
2023/01/17 05:38:15;;;;;;;3.63;1.77;;;;;;;;;;4989682;28;20157;-82
2023/01/17 05:40:41;;;;;;;0.95;0.70;;;;;;;;;;4996971;28;20405;-79
2023/01/17 05:43:08;;;;;;;2.75;1.38;;;;;;;;;;5002301;28;20041;-81
2023/01/17 05:45:34;;;;;;;1.90;1.40;;;;;;;;;;4989188;28;20033;-79
2023/01/17 05:48:00;;;;;;;1.70;1.00;;;;;;;;;;5002277;28;20033;-81
2023/01/17 05:50:28;;;;;;;2.53;1.27;;;;;;;;;;5008693;28;20464;-77
2023/01/17 05:52:55;;;;;;;1.40;1.02;;;;;;;;;;5001424;28;20092;-82
2023/01/17 05:55:22;;;;;;;2.25;1.40;;;;;;;;;;5005868;28;20022;-81
2023/01/17 05:57:49;;;;;;;2.10;1.13;;;;;;;;;;5006114;28;20034;-79
2023/01/17 06:00:15;;;;;;;2.78;1.13;;;;;;;;;;5002742;28;20517;-81
2023/01/17 06:02:41;;;;;;;1.25;0.88;;;;;;;;;;5005526;28;20038;-79
2023/01/17 06:05:07;;;;;;;3.42;1.58;;;;;;;;;;5006788;28;20113;-79
2023/01/17 06:07:33;;;;;;;6.65;1.75;;;;;;;;;;5010490;28;20643;-79
2023/01/17 06:09:59;;;;;;;3.30;1.67;;;;;;;;;;5007021;28;20041;-81
2023/01/17 06:12:25;;;;;;;2.95;1.77;;;;;;;;;;5008189;28;20029;-79
2023/01/17 06:14:51;;;;;;;3.42;1.77;;;;;;;;;;5006974;28;20426;-80
2023/01/17 06:17:17;;;;;;;2.80;1.63;;;;;;;;;;4998537;28;20397;-80
2023/01/17 06:19:44;;;;;;;5.47;1.80;;;;;;;;;;5008492;28;20025;-80
2023/01/17 06:22:10;;;;;;;3.10;1.23;;;;;;;;;;4997219;28;20037;-77
2023/01/17 06:24:36;;;;;;;6.10;3.47;;;;;;;;;;5001117;28;20470;-80
2023/01/17 06:27:02;;;;;;;11.75;5.38;;;;;;;;;;5000318;28;20038;-80
2023/01/17 06:29:28;;;;;;;9.45;4.68;;;;;;;;;;5003710;28;20021;-78
2023/01/17 06:31:54;;;;;;;14.77;6.95;;;;;;;;;;5000957;28;20035;-80
2023/01/17 06:34:20;;;;;;;32.42;14.85;;;;;;;;;;5003613;28;22761;-79
2023/01/17 06:36:46;;;;;;;32.20;13.95;;;;;;;;;;5011385;28;20034;-80
2023/01/17 06:39:12;;;;;;;14.82;6.72;;;;;;;;;;5002575;28;20026;-78
2023/01/17 06:41:38;;;;;;;14.95;6.72;;;;;;;;;;4998688;28;20486;-79
2023/01/17 06:44:04;;;;;;;9.15;4.30;;;;;;;;;;5003694;28;20571;-79
2023/01/17 06:46:30;;;;;;;5.63;2.58;;;;;;;;;;4996245;28;20037;-80
2023/01/17 06:48:56;;;;;;;4.22;1.92;;;;;;;;;;5002842;28;20657;-80
2023/01/17 06:51:21;;;;;;;4.95;2.53;;;;;;;;;;5008305;28;20135;-80
2023/01/17 06:53:48;;;;;;;1.75;1.05;;;;;;;;;;4997155;28;20106;-81
2023/01/17 06:56:14;;;;;;;2.90;1.75;;;;;;;;;;5011147;28;20217;-80
2023/01/17 06:58:40;;;;;;;4.85;1.70;;;;;;;;;;5005553;28;20034;-80
2023/01/17 07:01:07;;;;;;;2.38;1.50;;;;;;;;;;5006126;28;20080;-79
2023/01/17 07:03:33;;;;;;;3.17;1.77;;;;;;;;;;5004471;28;20022;-80
2023/01/17 07:06:01;;;;;;;2.83;1.40;;;;;;;;;;5008167;28;20072;-80
2023/01/17 07:08:27;;;;;;;1.50;0.90;;;;;;;;;;5008991;28;20053;-79
2023/01/17 07:10:57;;;;;;;4.38;1.85;;;;;;;;;;5002528;28;20049;-80
2023/01/17 07:13:23;;;;;;;9.35;3.13;;;;;;;;;;5006381;28;20030;-78
2023/01/17 07:15:49;;;;;;;14.85;4.55;;;;;;;;;;5003261;28;20484;-82
2023/01/17 07:18:19;;;;;;;8.02;3.33;;;;;;;;;;5000061;28;20034;-79
2023/01/17 07:20:45;;;;;;;4.88;1.88;;;;;;;;;;5007251;28;20512;-79
2023/01/17 07:23:11;;;;;;;8.32;2.60;;;;;;;;;;5001234;28;20072;-77
2023/01/17 07:25:37;;;;;;;4.07;2.13;;;;;;;;;;5007082;28;20125;-77
2023/01/17 07:28:03;;;;;;;3.53;1.83;;;;;;;;;;5004424;28;20034;-80
2023/01/17 07:30:29;;;;;;;6.57;3.00;;;;;;;;;;5006669;28;20403;-80
2023/01/17 07:32:55;;;;;;;1.98;1.63;;;;;;;;;;5011630;28;20033;-80
2023/01/17 07:35:22;;;;;;;7.40;3.42;;;;;;;;;;5009639;28;20030;-80
2023/01/17 07:37:49;;;;;;;5.03;2.35;;;;;;;;;;5007961;28;20046;-80
2023/01/17 07:40:16;;;;;;;4.03;1.63;;;;;;;;;;5008250;28;20030;-80
2023/01/17 07:42:42;;;;;;;5.20;1.75;;;;;;;;;;5005081;28;20057;-79
2023/01/17 07:45:09;;;;;;;1.55;1.17;;;;;;;;;;5005077;28;20030;-78
2023/01/17 07:47:34;;;;;;;4.28;2.47;;;;;;;;;;5004545;28;20038;-81
2023/01/17 07:50:01;;;;;;;5.88;1.45;;;;;;;;;;5006896;28;20474;-81
2023/01/17 07:52:27;;;;;;;1.45;1.17;;;;;;;;;;5009556;28;20029;-78
2023/01/17 07:54:53;;;;;;;4.45;2.75;;;;;;;;;;5006457;28;20029;-81
2023/01/17 07:57:19;;;;;;;9.73;3.92;;;;;;;;;;5002871;28;20022;-81
2023/01/17 07:59:45;;;;;;;18.45;4.00;;;;;;;;;;5005252;28;20393;-80
2023/01/17 08:02:18;;;;;;;4.80;2.95;;;;;;;;;;5000852;28;20080;-79
2023/01/17 08:04:44;;;;;;;2.78;1.25;;;;;;;;;;5000945;28;20089;-81
2023/01/17 08:07:12;;;;;;;1.63;1.35;;;;;;;;;;4995138;28;20041;-79
2023/01/17 08:09:38;;;;;;;3.15;1.67;;;;;;;;;;4997954;28;20096;-80
2023/01/17 08:12:04;;;;;;;2.42;1.60;;;;;;;;;;5002115;28;20042;-81
2023/01/17 08:14:30;;;;;;;4.18;1.88;;;;;;;;;;5008073;28;20037;-80
2023/01/17 08:17:03;;;;;;;10.20;4.00;;;;;;;;;;5010166;28;20025;-80
2023/01/17 08:19:29;;;;;;;10.95;4.97;;;;;;;;;;5009329;28;20033;-81
2023/01/17 08:21:55;;;;;;;10.55;4.90;;;;;;;;;;5004382;28;20851;-80
2023/01/17 08:24:21;;;;;;;5.45;4.63;;;;;;;;;;5003148;28;20592;-80
2023/01/17 08:26:47;;;;;;;6.03;3.28;;;;;;;;;;5001676;28;20095;-79
2023/01/17 08:29:14;;;;;;;8.75;3.10;;;;;;;;;;5009020;28;20925;-80
2023/01/17 08:31:40;;;;;;;2.50;1.77;;;;;;;;;;5004976;28;20037;-81
2023/01/17 08:34:06;;;;;;;1.98;1.50;;;;;;;;;;5012421;28;20093;-82
2023/01/17 08:36:32;;;;;;;2.63;1.88;;;;;;;;;;5013439;28;20064;-78
2023/01/17 08:38:58;;;;;;;12.77;2.05;;;;;;;;;;5006331;28;20030;-81
2023/01/17 08:41:26;;;;;;;4.50;2.05;;;;;;;;;;5006543;28;20022;-79
2023/01/17 08:43:52;;;;;;;5.93;2.03;;;;;;;;;;5008722;28;20532;-81
2023/01/17 08:46:18;;;;;;;23.52;10.18;;;;;;;;;;5011853;28;20131;-81
2023/01/17 08:48:45;;;;;;;29.08;11.32;;;;;;;;;;5005766;28;20049;-81
2023/01/17 08:51:11;;;;;;;30.67;10.95;;;;;;;;;;5009472;28;20045;-81
2023/01/17 08:53:37;;;;;;;15.70;7.38;;;;;;;;;;5006667;28;20060;-81
2023/01/17 08:56:04;;;;;;;18.00;5.90;;;;;;;;;;5006507;28;20477;-81
2023/01/17 08:58:31;;;;;;;15.15;3.78;;;;;;;;;;5008397;28;20045;-81
2023/01/17 09:01:04;;;;;;;5.28;2.47;;;8.10;99.90;;;;;;5006113;28;20111;-80
2023/01/17 09:03:31;;;;;;;2.42;1.33;;;;;;;;;;5015040;28;20022;-82
2023/01/17 09:06:01;;;;;;;2.08;1.13;;;8.40;99.90;;;;;;5012982;28;20061;-82
2023/01/17 09:08:27;;;;;;;2.47;1.17;;;;;;;;;;5010420;28;20054;-82
2023/01/17 09:10:53;;;;;;;1.42;0.90;;;;;;;;;;5009973;28;20100;-80
2023/01/17 09:13:19;;;;;;;2.85;1.25;;;;;;;;;;5010673;28;20026;-80
2023/01/17 09:15:45;;;;;;;1.55;1.17;;;;;;;;;;5009124;28;20059;-82
2023/01/17 09:18:11;;;;;;;2.42;1.25;;;;;;;;;;5013374;28;20037;-81
2023/01/17 09:20:37;;;;;;;1.13;0.70;;;;;;;;;;5013872;28;20038;-78
2023/01/17 09:23:03;;;;;;;1.63;0.90;;;;;;;;;;5009535;28;20053;-79
2023/01/17 09:25:29;;;;;;;2.05;1.08;;;;;;;;;;5003875;28;20503;-81
2023/01/17 09:27:55;;;;;;;4.97;1.75;;;;;;;;;;5012735;28;20108;-80
2023/01/17 09:30:22;;;;;;;2.05;1.27;;;;;;;;;;5009059;28;20687;-81
2023/01/17 09:32:52;;;;;;;5.65;2.00;;;4.00;99.90;;;;;;5009490;28;20225;-82
2023/01/17 09:35:18;;;;;;;5.00;1.55;;;;;;;;;;5011612;28;20030;-79
2023/01/17 09:37:44;;;;;;;15.23;2.10;;;;;;;;;;5009211;28;20083;-79
2023/01/17 09:40:13;;;;;;;5.40;2.13;;;;;;;;;;5011825;28;20030;-80
2023/01/17 09:42:39;;;;;;;6.20;1.42;;;;;;;;;;5014064;28;20058;-81
2023/01/17 09:45:11;;;;;;;4.28;1.55;;;;;;;;;;5013179;28;20029;-80
2023/01/17 09:47:41;;;;;;;6.30;1.13;;;;;;;;;;5013885;28;20033;-79
2023/01/17 09:50:07;;;;;;;7.40;2.10;;;;;;;;;;5008803;28;20045;-77
2023/01/17 09:52:33;;;;;;;2.03;1.17;;;;;;;;;;5008591;28;20018;-77
2023/01/17 09:54:59;;;;;;;3.35;1.25;;;;;;;;;;5013311;28;20091;-79
2023/01/17 09:57:47;;;;;;;4.68;1.52;;;4.00;99.90;;;;;;5013078;28;20056;-77
2023/01/17 10:00:32;;;;;;;4.78;1.10;;;;;;;;;;5012685;28;20022;-79
2023/01/17 10:03:12;;;;;;;2.42;0.93;;;;;;;;;;5015972;28;20064;-78
2023/01/17 10:05:38;;;;;;;1.30;0.63;;;;;;;;;;5014183;28;20060;-80
2023/01/17 10:08:11;;;;;;;1.85;1.13;;;;;;;;;;5010758;28;20042;-80
2023/01/17 10:11:03;;;;;;;2.15;0.90;;;;;;;;;;5005213;28;20092;-78
2023/01/17 10:13:29;;;;;;;0.77;0.68;;;;;;;;;;5006145;28;20044;-77
2023/01/17 10:15:59;;;;;;;5.70;0.82;;;4.30;99.90;;;;;;5008285;28;20018;-79
2023/01/17 10:18:32;;;;;;;1.55;0.85;;;;;;;;;;5004561;28;20032;-80
2023/01/17 10:21:04;;;;;;;4.05;0.70;;;;;;;;;;5005714;28;20489;-78
2023/01/17 10:23:41;;;;;;;9.95;2.47;;;;;;;;;;5007959;28;20040;-77
2023/01/17 10:26:14;;;;;;;2.03;1.10;;;;;;;;;;5013378;28;21591;-79
2023/01/17 10:28:45;;;;;;;2.42;1.08;;;;;;;;;;5014544;28;20034;-80
2023/01/17 10:31:14;;;;;;;1.75;0.75;;;;;;;;;;5010993;28;20045;-78
2023/01/17 10:33:44;;;;;;;7.20;1.02;;;;;;;;;;5009470;28;20029;-79
2023/01/17 10:36:14;;;;;;;6.20;1.20;;;4.40;99.90;;;;;;4998415;28;20478;-78
2023/01/17 10:38:43;;;;;;;4.18;0.90;;;;;;;;;;5009649;28;20055;-78
2023/01/17 10:41:09;;;;;;;3.55;1.10;;;;;;;;;;5015669;28;20030;-78
2023/01/17 10:43:38;;;;;;;0.57;0.50;;;;;;;;;;5016153;28;20033;-80
2023/01/17 10:46:04;;;;;;;3.40;1.13;;;;;;;;;;5009184;28;20030;-80
2023/01/17 10:48:35;;;;;;;1.45;1.00;;;;;;;;;;5007092;28;20146;-79
2023/01/17 10:51:09;;;;;;;2.58;0.80;;;;;;;;;;5013174;28;20038;-79
2023/01/17 10:53:43;;;;;;;1.60;1.13;;;;;;;;;;5013985;28;20034;-79
2023/01/17 10:56:13;;;;;;;3.53;1.15;;;;;;;;;;5007248;28;20034;-79
2023/01/17 10:58:39;;;;;;;1.50;0.60;;;;;;;;;;5013852;28;20095;-79
2023/01/17 11:01:19;;;;;;;2.28;0.90;;;;;;;;;;5010391;28;20062;-80
2023/01/17 11:03:49;;;;;;;1.95;1.13;;;;;;;;;;5009009;28;20101;-79
2023/01/17 11:06:16;;;;;;;6.20;1.20;;;;;;;;;;5010446;28;20217;-76
2023/01/17 11:08:59;;;;;;;4.00;1.27;;;4.10;99.90;;;;;;5010850;28;20034;-78
2023/01/17 11:11:29;;;;;;;4.00;0.88;;;;;;;;;;5003487;28;20040;-80
2023/01/17 11:13:56;;;;;;;1.40;0.40;;;;;;;;;;5007103;28;20036;-77
2023/01/17 11:16:24;;;;;;;2.45;0.73;;;;;;;;;;5000743;28;20121;-79
2023/01/17 11:19:07;;;;;;;2.70;0.70;;;;;;;;;;5002208;28;20033;-78
2023/01/17 11:21:33;;;;;;;;;;;;;;;;;;4995564;28;20033;-78
2023/01/17 11:24:08;;;;;;;1.02;0.30;;;;;;;;;;4998811;28;19914;-78
2023/01/17 11:26:35;;;;;;;8.43;0.70;;;;;;;;;;5007718;28;20076;-80
2023/01/17 11:29:20;;;;;;;4.38;0.95;;;;;;;;;;5004899;28;20093;-80
2023/01/17 11:31:45;;;;;;;1.05;0.57;;;;;;;;;;5005445;28;20050;-78
2023/01/17 11:34:16;;;;;;;2.22;0.77;;;;;;;;;;5007176;28;20593;-78
2023/01/17 11:36:42;;;;;;;1.85;0.45;;;;;;;;;;5004394;28;20029;-77
2023/01/17 11:39:16;;;;;;;2.58;0.43;;;4.50;99.90;;;;;;5005919;28;20030;-80
2023/01/17 11:41:43;;;;;;;0.52;0.28;;;;;;;;;;5006829;28;20038;-78
2023/01/17 11:44:21;;;;;;;0.80;0.52;;;;;;;;;;5003641;28;20123;-77
2023/01/17 11:46:47;;;;;;;1.83;0.88;;;;;;;;;;5003144;28;21537;-79
2023/01/17 11:49:23;;;;;;;0.57;0.38;;;;;;;;;;5005340;28;20024;-79
2023/01/17 11:51:54;;;;;;;0.98;0.35;;;5.90;99.90;;;;;;5012366;28;20045;-79
2023/01/17 11:54:39;;;;;;;3.13;0.85;;;;;;;;;;5004743;28;20068;-78
2023/01/17 11:57:05;;;;;;;0.30;0.30;;;;;;;;;;5013322;28;20045;-78
2023/01/17 11:59:36;;;;;;;0.85;0.40;;;;;;;;;;5011973;28;20022;-77
2023/01/17 12:02:05;;;;;;;1.38;0.50;;;;;;;;;;5008931;28;20030;-78
2023/01/17 12:04:35;;;;;;;0.90;0.55;;;;;;;;;;5007108;28;20037;-79
2023/01/17 12:07:19;;;;;;;0.93;0.40;;;;;;;;;;5005247;28;20517;-80
2023/01/17 12:10:00;;;;;;;2.25;0.77;;;;;;;;;;5002328;28;20022;-79
2023/01/17 12:15:41;;;;;;;1.85;0.63;;;;;;;;;;5007841;28;20046;-79
2023/01/17 12:18:20;;;;;;;1.48;0.75;;;6.10;99.90;;;;;;5011776;28;20038;-78
2023/01/17 12:20:59;;;;;;;0.98;0.52;;;;;;;;;;5015308;28;20668;-79
2023/01/17 12:23:33;;;;;;;1.35;0.68;;;;;;;;;;5016025;28;20079;-79
2023/01/17 12:25:59;;;;;;;2.05;0.60;;;;;;;;;;5011634;28;20041;-80
2023/01/17 12:28:25;;;;;;;1.85;0.32;;;;;;;;;;5013751;28;20052;-79
2023/01/17 12:31:13;;;;;;;1.65;0.50;;;;;;;;;;5010988;28;20034;-77
2023/01/17 12:33:46;;;;;;;1.27;0.28;;;;;;;;;;5010613;28;20099;-78
2023/01/17 12:36:21;;;;;;;0.90;0.40;;;;;;;;;;5010673;28;21612;-79
2023/01/17 12:38:48;;;;;;;0.98;0.35;;;;;;;;;;5013670;28;20042;-81
2023/01/17 12:41:25;;;;;;;0.73;0.30;;;;;;;;;;5008546;28;20220;-81
2023/01/17 12:43:56;;;;;;;6.63;0.82;;;5.90;99.90;;;;;;5014043;28;20514;-80
2023/01/17 12:46:28;;;;;;;2.05;0.70;;;;;;;;;;5009870;28;20435;-80
2023/01/17 12:48:58;;;;;;;2.08;0.93;;;;;;;;;;5009900;28;20033;-80
2023/01/17 12:51:28;;;;;;;1.65;0.50;;;;;;;;;;5008194;28;20092;-77
2023/01/17 12:54:13;;;;;;;1.80;0.98;;;;;;;;;;4994735;28;22143;-78
2023/01/17 12:56:48;;;;;;;1.95;0.65;;;;;;;;;;4998870;28;20069;-78
2023/01/17 12:59:18;;;;;;;0.77;0.47;;;;;;;;;;5009005;28;20036;-80
2023/01/17 13:01:56;;;;;;;1.33;0.60;;;;;;;;;;5013569;28;20478;-80
2023/01/17 13:04:28;;;;;;;9.88;2.13;;;;;;;;;;5015677;28;20030;-80
2023/01/17 13:07:31;;;;;;;8.10;2.25;;;4.60;99.90;;;;;;5014450;28;20101;-79
2023/01/17 13:10:07;;;;;;;2.28;0.82;;;;;;;;;;5008461;28;20052;-81
2023/01/17 13:12:36;;;;;;;1.80;0.70;;;;;;;;;;5010952;28;20147;-78
2023/01/17 13:15:05;;;;;;;0.98;0.50;;;;;;;;;;5006203;28;20679;-78
2023/01/17 13:17:36;;;;;;;3.65;0.75;;;;;;;;;;5007508;28;20039;-78
2023/01/17 13:20:08;;;;;;;2.50;1.20;;;;;;;;;;5003334;28;20032;-79
2023/01/17 13:22:34;;;;;;;6.90;0.95;;;;;;;;;;5003752;28;20026;-79
2023/01/17 13:25:19;;;;;;;2.10;0.80;;;;;;;;;;5001058;28;20080;-80
2023/01/17 13:28:04;;;;;;;4.88;1.15;;;;;;;;;;4999723;28;20058;-79
2023/01/17 13:30:30;;;;;;;2.83;1.00;;;;;;;;;;5000862;28;20591;-78
2023/01/17 13:32:56;;;;;;;2.65;0.85;;;;;;;;;;4999017;28;20097;-78
2023/01/17 13:35:26;;;;;;;1.67;0.55;;;;;;;;;;5006044;28;20060;-78
2023/01/17 13:37:59;;;;;;;4.63;0.80;;;;;;;;;;5006958;28;20072;-78
2023/01/17 13:40:44;;;;;;;1.75;0.80;;;;;;;;;;4995464;28;20036;-79
2023/01/17 13:43:14;;;;;;;4.75;0.98;;;;;;;;;;5003773;28;20034;-79
2023/01/17 13:45:40;;;;;;;1.83;0.55;;;;;;;;;;5006836;28;20092;-80
2023/01/17 13:48:18;;;;;;;3.17;1.42;;;;;;;;;;5006188;28;20201;-78
2023/01/17 13:50:49;;;;;;;4.38;1.63;;;;;;;;;;5014103;28;20038;-79
2023/01/17 13:53:33;;;;;;;4.32;2.03;;;;;;;;;;5007347;28;20033;-80
2023/01/17 13:56:02;;;;;;;1.05;0.57;;;;;;;;;;5003996;28;20034;-78
2023/01/17 13:58:28;;;;;;;2.00;0.75;;;;;;;;;;4992783;28;20037;-77
2023/01/17 14:00:54;;;;;;;1.67;0.73;;;;;;;;;;4998409;28;20025;-78
2023/01/17 14:03:39;;;;;;;2.30;0.75;;;;;;;;;;4997129;28;20040;-78
2023/01/17 14:06:25;;;;;;;3.85;1.20;;;;;;;;;;4996628;28;20095;-79
2023/01/17 14:08:52;;;;;;;6.03;1.20;;;;;;;;;;5000178;28;20061;-79
2023/01/17 14:11:18;;;;;;;10.40;2.28;;;;;;;;;;5003750;28;20410;-76
2023/01/17 14:13:44;;;;;;;3.63;0.52;;;;;;;;;;4998063;28;22324;-79
2023/01/17 14:16:30;;;;;;;3.75;1.25;;;;;;;;;;4999583;28;20090;-78
2023/01/17 14:18:56;;;;;;;4.20;1.00;;;;;;;;;;5002923;28;20034;-78
2023/01/17 14:21:25;;;;;;;2.92;1.10;;;;;;;;;;5010306;28;20497;-79
2023/01/17 14:24:11;;;;;;;4.85;0.80;;;;;;;;;;5004388;28;20032;-78
2023/01/17 14:26:45;;;;;;;7.05;1.13;;;;;;;;;;5007151;28;20040;-78
2023/01/17 14:29:31;;;;;;;2.22;1.23;;;;;;;;;;5008245;28;20029;-79
2023/01/17 14:32:02;;;;;;;3.30;1.58;;;;;;;;;;5000204;28;20050;-79
2023/01/17 14:34:28;;;;;;;8.65;1.08;;;;;;;;;;4997029;28;20032;-77
2023/01/17 14:37:03;;;;;;;5.45;1.40;;;;;;;;;;5001754;28;20553;-79
2023/01/17 14:39:29;;;;;;;5.53;1.05;;;;;;;;;;5004497;28;20662;-81
2023/01/17 14:41:55;;;;;;;2.35;0.80;;;;;;;;;;5004513;28;20037;-79
2023/01/17 14:44:21;;;;;;;3.40;1.38;;;;;;;;;;4998687;28;20127;-78
2023/01/17 14:46:48;;;;;;;6.10;2.15;;;;;;;;;;5000717;28;20026;-79
2023/01/17 14:49:23;;;;;;;4.30;1.63;;;3.90;99.90;;;;;;5002476;28;20034;-78
2023/01/17 14:52:01;;;;;;;8.23;2.40;;;;;;;;;;5003061;28;20044;-78
2023/01/17 14:54:27;;;;;;;10.13;2.15;;;;;;;;;;5004115;28;20026;-78
2023/01/17 14:57:10;;;;;;;5.85;1.00;;;;;;;;;;5001555;28;20024;-79
2023/01/17 14:59:36;;;;;;;9.43;1.92;;;;;;;;;;5001179;28;20518;-77
2023/01/17 15:02:03;;;;;;;5.72;1.65;;;;;;;;;;5004669;28;20062;-77
2023/01/17 15:04:30;;;;;;;6.07;1.88;;;3.80;99.90;;;;;;5002820;28;20048;-78
2023/01/17 15:06:58;;;;;;;4.07;1.38;;;;;;;;;;4996335;28;20494;-79
2023/01/17 15:09:31;;;;;;;8.30;2.65;;;2.80;99.90;;;;;;4990049;28;20014;-78
2023/01/17 15:11:57;;;;;;;3.90;1.30;;;;;;;;;;4996133;28;20044;-78
2023/01/17 15:14:31;;;;;;;8.68;3.10;;;;;;;;;;4996820;28;20506;-79
2023/01/17 15:17:08;;;;;;;4.18;1.83;;;;;;;;;;4990651;28;20040;-79
2023/01/17 15:19:41;;;;;;;10.25;1.10;;;;;;;;;;4996119;28;20030;-80
2023/01/17 15:22:07;;;;;;;4.50;1.40;;;;;;;;;;5001761;28;20101;-79
2023/01/17 15:24:37;;;;;;;3.10;1.15;;;;;;;;;;5000158;28;20029;-78
2023/01/17 15:27:05;;;;;;;6.40;1.42;;;;;;;;;;4999059;28;20026;-78
2023/01/17 15:29:32;;;;;;;8.02;0.88;;;;;;;;;;4987834;28;20707;-79
2023/01/17 15:31:59;;;;;;;5.60;1.60;;;;;;;;;;4998037;28;20048;-78
2023/01/17 15:34:34;;;;;;;3.20;1.23;;;2.50;99.90;;;;;;5001925;28;20710;-79
2023/01/17 15:37:01;;;;;;;6.82;3.03;;;;;;;;;;5008514;28;20038;-79
2023/01/17 15:39:29;;;;;;;19.67;6.97;;;;;;;;;;5001062;28;20074;-78
2023/01/17 15:41:57;;;;;;;13.18;5.00;;;;;;;;;;5013258;28;20034;-78
2023/01/17 15:44:33;;;;;;;14.35;4.93;;;;;;;;;;5013226;28;20475;-77
2023/01/17 15:46:59;;;;;;;30.50;7.15;;;;;;;;;;5014152;28;20030;-77
2023/01/17 15:49:27;;;;;;;21.63;7.32;;;;;;;;;;5015968;28;20044;-77
2023/01/17 15:52:03;;;;;;;23.25;6.70;;;;;;;;;;4998321;28;20109;-79
2023/01/17 15:54:54;;;;;;;27.05;6.47;;;;;;;;;;4996447;28;22340;-77
2023/01/17 15:57:26;;;;;;;17.45;5.07;;;;;;;;;;4997987;28;20030;-79
2023/01/17 15:59:52;;;;;;;12.77;5.57;;;;;;;;;;4994554;28;20022;-79
2023/01/17 16:02:35;;;;;;;18.00;5.22;;;;;;;;;;4996927;28;20048;-78
2023/01/17 16:05:04;;;;;;;5.60;2.42;;;;;;;;;;4992831;28;20481;-77
2023/01/17 16:07:34;;;;;;;12.77;4.13;;;;;;;;;;4989251;28;20030;-78
2023/01/17 16:10:20;;;;;;;19.40;6.68;;;2.20;99.90;;;;;;4997769;28;20584;-80
2023/01/17 16:12:47;;;;;;;17.42;6.50;;;;;;;;;;5005673;28;20112;-79